Time;durP1;ratioP1;P1;durP2;ratioP2;P2;SDS_P1;SDS_P2;PMS_P1;PMS_P2;Temp;Humidity;BMP_temperature;BMP_pressure;BME280_temperature;BME280_humidity;BME280_pressure;Samples;Min_cycle;Max_cycle;Signal;HPM_P1;HPM_P2
2022/09/15 00:01:54;;;;;;;3.73;2.80;;;17.30;99.90;;;;;;4990085;28;20582;-62
2022/09/15 00:04:19;;;;;;;2.77;2.40;;;17.20;99.90;;;;;;4988658;28;20203;-63
2022/09/15 00:06:45;;;;;;;5.67;2.20;;;17.20;99.90;;;;;;4985414;28;20185;-63
2022/09/15 00:09:10;;;;;;;3.43;2.50;;;17.20;99.90;;;;;;4987777;28;20209;-63
2022/09/15 00:11:37;;;;;;;8.93;2.63;;;17.20;99.90;;;;;;4990469;28;20242;-63
2022/09/15 00:14:05;;;;;;;4.20;2.50;;;17.20;99.90;;;;;;4985879;28;20216;-62
2022/09/15 00:16:31;;;;;;;5.47;2.47;;;17.20;99.90;;;;;;4983138;28;20459;-62
2022/09/15 00:18:58;;;;;;;3.07;2.20;;;17.20;99.90;;;;;;5000283;28;20783;-63
2022/09/15 00:21:29;;;;;;;5.03;2.40;;;17.20;99.90;;;;;;4989572;28;20185;-63
2022/09/15 00:23:55;;;;;;;3.33;2.00;;;17.10;99.90;;;;;;4988755;28;20516;-63
2022/09/15 00:26:23;;;;;;;1.90;1.80;;;17.10;99.90;;;;;;4989818;28;20428;-62
2022/09/15 00:28:49;;;;;;;3.10;2.20;;;17.10;99.90;;;;;;4987483;28;20429;-62
2022/09/15 00:31:18;;;;;;;3.07;1.63;;;17.10;99.90;;;;;;4988643;28;20797;-62
2022/09/15 00:33:52;;;;;;;3.27;1.97;;;17.10;99.90;;;;;;4986895;28;20213;-63
2022/09/15 00:36:19;;;;;;;3.50;2.20;;;17.10;99.90;;;;;;4978614;28;20431;-62
2022/09/15 00:38:45;;;;;;;4.03;2.30;;;17.10;99.90;;;;;;4987467;28;20432;-62
2022/09/15 00:41:15;;;;;;;3.10;1.97;;;17.10;99.90;;;;;;4988148;28;20426;-63
2022/09/15 00:43:42;;;;;;;4.07;2.00;;;17.10;99.90;;;;;;4986174;28;21150;-62
2022/09/15 00:46:08;;;;;;;3.77;1.93;;;17.10;99.90;;;;;;4987146;28;20452;-62
2022/09/15 00:48:36;;;;;;;3.03;2.17;;;17.00;99.90;;;;;;4989326;28;20432;-63
2022/09/15 00:51:03;;;;;;;7.90;1.90;;;17.00;99.90;;;;;;4988152;28;20425;-63
2022/09/15 00:53:30;;;;;;;2.33;2.00;;;17.00;99.90;;;;;;4990661;28;20431;-62
2022/09/15 00:55:58;;;;;;;1.90;1.80;;;17.00;99.90;;;;;;4992413;28;20438;-62
2022/09/15 00:58:37;;;;;;;2.20;1.97;;;17.00;99.90;;;;;;4982749;28;20496;-62
2022/09/15 01:01:06;;;;;;;2.60;1.90;;;17.00;99.90;;;;;;4989572;28;20804;-62
2022/09/15 01:03:32;;;;;;;3.10;2.23;;;16.90;99.90;;;;;;4993256;28;20448;-62
2022/09/15 01:06:29;;;;;;;1.70;1.60;;;16.90;99.90;;;;;;4987764;28;20432;-62
2022/09/15 01:09:13;;;;;;;4.20;2.00;;;16.90;99.90;;;;;;4986065;28;20877;-62
2022/09/15 01:11:40;;;;;;;2.73;1.90;;;16.90;99.90;;;;;;4991664;28;20455;-62
2022/09/15 01:14:05;;;;;;;2.00;1.73;;;16.90;99.90;;;;;;4987130;28;20447;-63
2022/09/15 01:16:46;;;;;;;3.30;2.37;;;16.90;99.90;;;;;;4991242;28;20452;-62
2022/09/15 01:19:31;;;;;;;9.87;2.13;;;16.90;99.90;;;;;;4991100;28;20240;-62
2022/09/15 01:22:24;;;;;;;4.00;1.87;;;16.90;99.90;;;;;;4991285;28;20962;-62
2022/09/15 01:25:15;;;;;;;3.50;2.13;;;16.90;99.90;;;;;;4984588;28;20927;-62
2022/09/15 01:28:17;;;;;;;2.53;1.93;;;16.90;99.90;;;;;;4990852;28;20519;-62
2022/09/15 01:30:58;;;;;;;4.67;1.83;;;16.90;99.90;;;;;;4990234;28;20435;-62
2022/09/15 01:33:46;;;;;;;4.10;2.00;;;16.80;99.90;;;;;;4991376;28;20452;-62
2022/09/15 01:36:20;;;;;;;6.57;2.40;;;16.80;99.90;;;;;;4983935;28;20784;-62
2022/09/15 01:39:14;;;;;;;2.63;2.03;;;16.70;99.90;;;;;;4992264;28;20396;-62
2022/09/15 01:41:49;;;;;;;2.43;1.80;;;16.70;99.90;;;;;;4992582;28;21043;-62
2022/09/15 01:44:23;;;;;;;3.13;2.20;;;16.70;99.90;;;;;;4991353;28;20502;-62
2022/09/15 01:46:54;;;;;;;7.43;2.20;;;16.70;99.90;;;;;;4986583;28;20530;-63
2022/09/15 01:49:32;;;;;;;3.53;2.30;;;16.70;99.90;;;;;;4994096;28;20467;-63
2022/09/15 01:51:58;;;;;;;2.47;1.87;;;16.60;99.90;;;;;;4992743;28;20443;-62
2022/09/15 01:54:29;;;;;;;5.43;1.80;;;16.60;99.90;;;;;;4989286;28;20448;-62
2022/09/15 01:56:56;;;;;;;3.13;1.90;;;16.60;99.90;;;;;;4981627;28;20459;-62
2022/09/15 01:59:21;;;;;;;11.10;2.17;;;16.60;99.90;;;;;;4991009;28;20455;-62
2022/09/15 02:02:08;;;;;;;3.83;2.17;;;16.60;99.90;;;;;;4991939;28;20955;-63
2022/09/15 02:04:40;;;;;;;2.60;1.83;;;16.60;99.90;;;;;;4992335;28;20192;-63
2022/09/15 02:07:18;;;;;;;4.90;2.17;;;16.60;99.90;;;;;;4986118;28;20436;-63
2022/09/15 02:10:04;;;;;;;3.23;2.10;;;16.60;99.90;;;;;;4991254;28;20435;-63
2022/09/15 02:12:37;;;;;;;2.10;1.77;;;16.60;99.90;;;;;;4991721;28;20503;-62
2022/09/15 02:15:09;;;;;;;4.73;2.60;;;16.50;99.90;;;;;;4990181;28;20465;-63
2022/09/15 02:17:39;;;;;;;3.60;1.97;;;16.40;99.90;;;;;;4979095;28;20833;-63
2022/09/15 02:20:08;;;;;;;3.57;1.97;;;16.30;99.90;;;;;;4991259;28;21177;-64
2022/09/15 02:22:37;;;;;;;4.03;1.93;;;16.20;99.90;;;;;;4990161;28;20439;-63
2022/09/15 02:25:10;;;;;;;3.20;2.20;;;16.20;99.90;;;;;;4990585;28;20431;-63
2022/09/15 02:27:45;;;;;;;3.63;2.20;;;16.10;99.90;;;;;;4989053;28;20837;-62
2022/09/15 02:30:14;;;;;;;2.87;1.93;;;16.10;99.90;;;;;;4988880;28;20446;-63
2022/09/15 02:32:48;;;;;;;4.03;2.37;;;16.00;99.90;;;;;;4989113;28;20442;-62
2022/09/15 02:35:15;;;;;;;6.27;2.67;;;16.00;99.90;;;;;;5004191;28;20414;-63
2022/09/15 02:37:42;;;;;;;3.10;1.90;;;16.00;99.90;;;;;;5006338;28;20452;-63
2022/09/15 02:40:08;;;;;;;2.10;1.73;;;16.00;99.90;;;;;;4991656;28;20409;-63
2022/09/15 02:42:33;;;;;;;4.13;2.20;;;16.00;99.90;;;;;;4992002;28;20428;-63
2022/09/15 02:44:59;;;;;;;4.30;2.47;;;16.10;99.90;;;;;;4987574;28;20534;-63
2022/09/15 02:47:27;;;;;;;2.80;2.30;;;16.10;99.90;;;;;;4991081;28;20193;-63
2022/09/15 02:49:53;;;;;;;4.60;2.33;;;16.10;99.90;;;;;;4991285;28;20424;-62
2022/09/15 02:52:19;;;;;;;5.97;2.50;;;16.10;99.90;;;;;;4989384;28;20436;-62
2022/09/15 02:54:45;;;;;;;2.73;2.13;;;16.10;99.90;;;;;;4985543;28;20455;-63
2022/09/15 02:57:13;;;;;;;4.50;2.27;;;16.10;99.90;;;;;;4991714;28;20464;-62
2022/09/15 03:02:23;;;;;;;3.60;2.40;;;16.10;99.90;;;;;;4988980;28;20435;-63
2022/09/15 03:04:49;;;;;;;4.87;2.40;;;16.10;99.90;;;;;;4988968;28;20856;-63
2022/09/15 03:07:17;;;;;;;7.27;3.90;;;16.10;99.90;;;;;;4989912;28;20486;-63
2022/09/15 03:09:43;;;;;;;3.63;2.80;;;16.10;99.90;;;;;;4989626;28;20463;-63
2022/09/15 03:12:09;;;;;;;3.63;2.20;;;16.10;99.90;;;;;;4991478;28;20640;-63
2022/09/15 03:14:36;;;;;;;2.90;2.23;;;16.10;99.90;;;;;;4989145;28;20538;-63
2022/09/15 03:17:02;;;;;;;6.70;2.60;;;16.10;99.90;;;;;;4989694;28;21148;-63
2022/09/15 03:19:28;;;;;;;4.87;2.60;;;16.00;99.90;;;;;;4988983;28;20512;-62
2022/09/15 03:21:53;;;;;;;2.93;2.60;;;16.00;99.90;;;;;;4989972;28;20439;-63
2022/09/15 03:24:19;;;;;;;4.10;2.50;;;16.00;99.90;;;;;;4984235;28;20204;-64
2022/09/15 03:26:48;;;;;;;8.40;2.47;;;16.00;99.90;;;;;;4989581;28;21893;-63
2022/09/15 03:29:14;;;;;;;3.70;2.63;;;16.00;99.90;;;;;;4999772;28;20192;-62
2022/09/15 03:31:40;;;;;;;2.73;2.00;;;16.00;99.90;;;;;;4991272;28;20417;-62
2022/09/15 03:34:06;;;;;;;4.97;2.40;;;16.10;99.90;;;;;;4989039;28;20213;-62
2022/09/15 03:36:31;;;;;;;2.73;2.30;;;16.10;99.90;;;;;;4991272;28;20264;-63
2022/09/15 03:38:57;;;;;;;2.20;2.00;;;16.10;99.90;;;;;;4988850;28;20192;-64
2022/09/15 03:41:24;;;;;;;4.30;2.63;;;16.10;99.90;;;;;;4990327;28;20181;-62
2022/09/15 03:43:51;;;;;;;9.70;2.90;;;16.10;99.90;;;;;;4989383;28;20737;-63
2022/09/15 03:46:17;;;;;;;5.27;2.00;;;16.10;99.90;;;;;;4992152;28;20423;-63
2022/09/15 03:48:43;;;;;;;3.93;2.13;;;16.10;99.90;;;;;;4988855;28;20428;-63
2022/09/15 03:51:09;;;;;;;7.60;2.30;;;16.10;99.90;;;;;;4990515;28;20412;-63
2022/09/15 03:53:37;;;;;;;2.23;2.00;;;16.10;99.90;;;;;;4982600;28;20452;-60
2022/09/15 03:56:17;;;;;;;2.60;1.70;;;16.10;99.90;;;;;;4984023;28;20468;-59
2022/09/15 03:58:42;;;;;;;2.10;1.90;;;16.10;99.90;;;;;;4987497;28;20525;-60
2022/09/15 04:01:08;;;;;;;4.17;2.37;;;16.10;99.90;;;;;;4982878;28;21093;-59
2022/09/15 04:03:34;;;;;;;4.50;1.90;;;16.20;99.90;;;;;;4987358;28;20222;-59
2022/09/15 04:06:00;;;;;;;3.70;2.33;;;16.10;99.90;;;;;;4982657;28;20544;-59
2022/09/15 04:08:25;;;;;;;2.13;1.90;;;16.20;99.90;;;;;;4989306;28;20443;-58
2022/09/15 04:10:51;;;;;;;2.07;1.83;;;16.20;99.90;;;;;;4984779;28;20205;-59
2022/09/15 04:13:17;;;;;;;7.10;1.90;;;16.20;99.90;;;;;;4978592;28;20564;-56
2022/09/15 04:15:43;;;;;;;8.20;1.67;;;16.20;99.90;;;;;;4985731;28;20668;-57
2022/09/15 04:18:09;;;;;;;3.07;2.43;;;16.20;99.90;;;;;;4983518;28;20197;-56
2022/09/15 04:20:38;;;;;;;5.03;2.20;;;16.30;99.90;;;;;;4983449;28;20436;-57
2022/09/15 04:23:04;;;;;;;2.80;2.10;;;16.30;99.90;;;;;;4980547;28;20452;-58
2022/09/15 04:25:30;;;;;;;2.40;1.83;;;16.30;99.90;;;;;;4979268;28;20498;-63
2022/09/15 04:27:56;;;;;;;3.20;1.80;;;16.30;99.90;;;;;;4985027;28;20942;-63
2022/09/15 04:30:22;;;;;;;3.53;1.60;;;16.30;99.90;;;;;;4985474;28;20208;-62
2022/09/15 04:32:48;;;;;;;2.10;2.00;;;16.20;99.90;;;;;;4982507;28;20523;-62
2022/09/15 04:35:14;;;;;;;4.23;3.13;;;16.20;99.90;;;;;;4988341;28;20200;-63
2022/09/15 04:37:40;;;;;;;2.93;1.97;;;16.20;99.90;;;;;;4987400;28;20467;-62
2022/09/15 04:40:07;;;;;;;4.23;2.37;;;16.20;99.90;;;;;;4985165;28;20439;-63
2022/09/15 04:42:33;;;;;;;3.73;2.40;;;16.20;99.90;;;;;;4990446;28;20181;-63
2022/09/15 04:44:59;;;;;;;7.67;2.07;;;16.20;99.90;;;;;;4979358;28;20987;-62
2022/09/15 04:47:24;;;;;;;3.90;2.67;;;16.20;99.90;;;;;;4985973;28;20256;-61
2022/09/15 04:49:50;;;;;;;4.20;2.20;;;16.20;99.90;;;;;;5003611;28;20551;-62
2022/09/15 04:52:15;;;;;;;5.03;2.20;;;16.20;99.90;;;;;;4989288;28;20180;-62
2022/09/15 04:54:41;;;;;;;3.97;2.03;;;16.20;99.90;;;;;;4991524;28;20231;-62
2022/09/15 04:57:08;;;;;;;1.97;1.77;;;16.20;99.90;;;;;;4988913;28;20193;-62
2022/09/15 04:59:34;;;;;;;3.83;1.90;;;16.20;99.90;;;;;;4993551;28;20197;-63
2022/09/15 05:01:59;;;;;;;2.63;1.93;;;16.20;99.90;;;;;;4993839;28;20436;-63
2022/09/15 05:04:25;;;;;;;3.40;1.67;;;16.20;99.90;;;;;;4992167;28;20323;-62
2022/09/15 05:06:50;;;;;;;2.13;1.70;;;16.20;99.90;;;;;;4992142;28;20177;-62
2022/09/15 05:09:16;;;;;;;3.00;2.20;;;16.20;99.90;;;;;;4993406;28;20169;-62
2022/09/15 05:11:42;;;;;;;4.30;1.73;;;16.20;99.90;;;;;;4993430;28;20179;-63
2022/09/15 05:14:08;;;;;;;3.60;1.87;;;16.10;99.90;;;;;;4993402;28;20201;-62
2022/09/15 05:16:34;;;;;;;2.13;1.93;;;16.20;99.90;;;;;;4989934;28;20185;-62
2022/09/15 05:19:01;;;;;;;2.43;2.23;;;16.20;99.90;;;;;;4986338;28;20444;-62
2022/09/15 05:21:27;;;;;;;4.43;1.87;;;16.10;99.90;;;;;;4983344;28;20174;-62
2022/09/15 05:23:53;;;;;;;6.07;1.90;;;16.10;99.90;;;;;;4992174;28;22210;-63
2022/09/15 05:26:21;;;;;;;4.23;1.97;;;16.10;99.90;;;;;;4993686;28;20405;-62
2022/09/15 05:28:47;;;;;;;3.10;1.70;;;16.10;99.90;;;;;;4991615;28;20177;-62
2022/09/15 05:31:25;;;;;;;4.33;2.23;;;16.10;99.90;;;;;;4993414;28;20966;-62
2022/09/15 05:33:51;;;;;;;2.07;1.87;;;16.10;99.90;;;;;;4987931;28;20208;-63
2022/09/15 05:36:20;;;;;;;8.10;2.20;;;16.10;99.90;;;;;;4990926;28;20511;-62
2022/09/15 05:38:45;;;;;;;4.37;1.80;;;16.10;99.90;;;;;;4993316;28;20448;-62
2022/09/15 05:41:14;;;;;;;2.47;2.10;;;16.10;99.90;;;;;;4992161;28;20430;-62
2022/09/15 05:43:40;;;;;;;3.17;1.90;;;16.00;99.90;;;;;;4993078;28;20264;-62
2022/09/15 05:46:06;;;;;;;3.03;2.07;;;16.00;99.90;;;;;;4991060;28;20865;-62
2022/09/15 05:48:33;;;;;;;2.77;2.03;;;16.00;99.90;;;;;;4992729;28;20173;-62
2022/09/15 05:50:59;;;;;;;3.20;1.90;;;16.00;99.90;;;;;;4981149;28;20418;-62
2022/09/15 05:53:24;;;;;;;3.30;1.90;;;16.00;99.90;;;;;;4987419;28;20819;-63
2022/09/15 05:55:58;;;;;;;2.77;2.13;;;16.00;99.90;;;;;;4991439;28;20660;-63
2022/09/15 05:58:25;;;;;;;2.70;1.80;;;16.00;99.90;;;;;;4990193;28;20259;-62
2022/09/15 06:00:54;;;;;;;3.73;1.90;;;16.10;99.90;;;;;;4993019;28;20432;-62
2022/09/15 06:03:22;;;;;;;2.23;1.80;;;16.10;99.90;;;;;;4987812;28;20445;-63
2022/09/15 06:05:48;;;;;;;4.17;2.20;;;16.20;99.90;;;;;;4973496;28;21016;-62
2022/09/15 06:08:15;;;;;;;6.33;2.20;;;16.20;99.90;;;;;;4978239;28;20432;-63
2022/09/15 06:10:41;;;;;;;4.13;1.83;;;16.20;99.90;;;;;;4991151;28;20440;-63
2022/09/15 06:13:06;;;;;;;3.67;2.00;;;16.30;99.90;;;;;;4991519;28;20987;-63
2022/09/15 06:15:32;;;;;;;3.33;1.90;;;16.30;99.90;;;;;;4990145;28;20428;-62
2022/09/15 06:17:58;;;;;;;2.70;2.10;;;16.40;99.90;;;;;;4990786;28;20193;-62
2022/09/15 06:20:24;;;;;;;2.00;1.60;;;16.50;99.90;;;;;;4992305;28;20181;-63
2022/09/15 06:22:51;;;;;;;2.40;1.80;;;16.60;99.90;;;;;;4989596;28;20180;-61
2022/09/15 06:25:16;;;;;;;3.80;1.87;;;16.60;99.90;;;;;;4991235;28;20441;-62
2022/09/15 06:27:42;;;;;;;2.90;1.70;;;16.70;99.90;;;;;;4991358;28;20490;-62
2022/09/15 06:30:09;;;;;;;2.87;1.90;;;16.80;99.90;;;;;;4992005;28;20173;-62
2022/09/15 06:32:38;;;;;;;2.80;1.73;;;16.90;99.90;;;;;;4991775;28;20280;-62
2022/09/15 06:35:05;;;;;;;2.60;1.70;;;17.10;99.90;;;;;;4992008;28;20596;-63
2022/09/15 06:37:32;;;;;;;3.63;1.70;;;17.20;99.90;;;;;;4989567;28;20498;-63
2022/09/15 06:39:58;;;;;;;2.77;1.67;;;17.30;99.90;;;;;;4991882;28;20805;-62
2022/09/15 06:42:23;;;;;;;2.50;1.50;;;17.40;99.90;;;;;;4992045;28;20419;-63
2022/09/15 06:44:49;;;;;;;2.33;2.00;;;17.40;99.90;;;;;;4991484;28;20203;-62
2022/09/15 06:47:15;;;;;;;4.37;1.60;;;17.40;99.90;;;;;;4989513;28;20188;-62
2022/09/15 06:49:40;;;;;;;3.67;1.73;;;17.50;99.90;;;;;;4989276;28;20231;-62
2022/09/15 06:52:06;;;;;;;8.00;2.33;;;17.50;99.90;;;;;;4989454;28;20220;-62
2022/09/15 06:54:32;;;;;;;4.00;1.80;;;17.50;99.90;;;;;;5006060;28;20669;-63
2022/09/15 06:56:57;;;;;;;2.33;1.90;;;17.50;99.90;;;;;;4990260;28;20204;-62
2022/09/15 06:59:23;;;;;;;3.80;1.57;;;17.60;99.90;;;;;;4988949;28;20185;-62
2022/09/15 07:01:52;;;;;;;2.87;1.70;;;17.60;99.90;;;;;;4991712;28;20165;-62
2022/09/15 07:04:18;;;;;;;6.07;1.57;;;17.70;99.90;;;;;;4990402;28;20189;-63
2022/09/15 07:06:44;;;;;;;4.10;2.23;;;17.80;99.90;;;;;;4988767;28;20446;-62
2022/09/15 07:09:11;;;;;;;2.00;1.80;;;17.90;99.90;;;;;;4990974;28;20949;-63
2022/09/15 07:11:37;;;;;;;3.17;1.63;;;18.00;99.90;;;;;;4991565;28;20482;-62
2022/09/15 07:14:02;;;;;;;5.60;1.60;;;18.00;99.90;;;;;;4990519;28;20432;-62
2022/09/15 07:16:28;;;;;;;2.03;1.40;;;18.10;99.90;;;;;;4990574;28;20188;-62
2022/09/15 07:18:55;;;;;;;4.30;1.53;;;18.10;99.90;;;;;;4990286;28;20235;-62
2022/09/15 07:21:22;;;;;;;1.93;1.27;;;18.20;99.90;;;;;;4989684;28;20201;-63
2022/09/15 07:23:48;;;;;;;2.07;1.20;;;18.10;99.90;;;;;;4991088;28;20451;-63
2022/09/15 07:26:17;;;;;;;1.87;1.10;;;18.10;99.90;;;;;;4989918;28;20509;-62
2022/09/15 07:28:46;;;;;;;2.30;1.60;;;18.10;99.90;;;;;;4987397;28;20432;-63
2022/09/15 07:31:14;;;;;;;2.20;1.63;;;18.10;99.90;;;;;;4971250;28;20456;-62
2022/09/15 07:33:40;;;;;;;3.30;1.30;;;18.10;99.90;;;;;;4988284;28;20456;-62
2022/09/15 07:36:07;;;;;;;3.17;1.40;;;18.00;99.90;;;;;;4988186;28;20428;-63
2022/09/15 07:38:37;;;;;;;2.40;1.43;;;18.00;99.90;;;;;;4990419;28;20259;-63
2022/09/15 07:41:08;;;;;;;1.50;1.40;;;18.00;99.90;;;;;;4989399;28;20515;-63
2022/09/15 07:43:34;;;;;;;1.83;1.53;;;18.00;99.90;;;;;;4990182;28;20796;-63
2022/09/15 07:46:00;;;;;;;2.03;1.30;;;18.00;99.90;;;;;;4975188;28;20431;-64
2022/09/15 07:48:26;;;;;;;1.30;1.20;;;18.10;99.90;;;;;;4990556;28;20411;-63
2022/09/15 07:50:52;;;;;;;1.40;1.30;;;18.10;99.90;;;;;;4987328;28;20803;-62
2022/09/15 07:53:18;;;;;;;1.83;1.20;;;18.10;99.90;;;;;;4990813;28;20246;-63
2022/09/15 07:55:43;;;;;;;2.70;1.30;;;18.10;99.90;;;;;;4990138;28;20714;-62
2022/09/15 07:58:09;;;;;;;1.80;1.30;;;18.10;99.90;;;;;;4990692;28;20601;-62
2022/09/15 08:00:37;;;;;;;2.50;1.47;;;18.10;99.90;;;;;;5038538;22;20314;-57
2022/09/15 08:03:03;;;;;;;1.93;1.50;;;18.10;99.90;;;;;;5025416;28;20639;-57
2022/09/15 08:05:28;;;;;;;8.20;1.80;;;18.10;99.90;;;;;;5011949;28;20855;-57
2022/09/15 08:07:55;;;;;;;1.47;1.30;;;18.00;99.90;;;;;;5030245;28;20230;-57
2022/09/15 08:10:24;;;;;;;2.20;1.13;;;18.10;99.90;;;;;;5032112;28;20823;-57
2022/09/15 08:12:51;;;;;;;4.13;1.70;;;18.10;99.90;;;;;;5029798;28;20435;-57
2022/09/15 08:15:17;;;;;;;3.67;1.50;;;18.00;99.90;;;;;;5031816;28;20422;-57
2022/09/15 08:17:43;;;;;;;1.43;1.33;;;18.10;99.90;;;;;;5030012;28;20485;-57
2022/09/15 08:20:09;;;;;;;3.40;1.60;;;18.00;99.90;;;;;;5032150;28;20453;-57
2022/09/15 08:22:35;;;;;;;2.10;1.47;;;18.00;99.90;;;;;;5030256;28;20176;-57
2022/09/15 08:25:01;;;;;;;2.20;1.50;;;18.00;99.90;;;;;;5032032;28;20488;-57
2022/09/15 08:27:26;;;;;;;1.60;1.30;;;18.00;99.90;;;;;;5030743;28;20438;-57
2022/09/15 08:29:52;;;;;;;1.97;1.77;;;18.00;99.90;;;;;;5024821;28;20231;-57
2022/09/15 08:32:18;;;;;;;2.20;1.50;;;18.00;99.90;;;;;;5031854;28;20172;-58
2022/09/15 08:34:44;;;;;;;2.27;1.50;;;17.90;99.90;;;;;;5031326;28;20183;-57
2022/09/15 08:37:10;;;;;;;4.43;1.93;;;17.90;99.90;;;;;;5030621;28;20458;-57
2022/09/15 08:39:35;;;;;;;1.63;1.53;;;17.90;99.90;;;;;;5030151;28;20294;-57
2022/09/15 08:42:03;;;;;;;1.63;1.33;;;17.80;99.90;;;;;;5031464;28;20286;-58
2022/09/15 08:44:33;;;;;;;1.43;1.33;;;17.70;99.90;;;;;;5030002;28;20179;-57
2022/09/15 08:47:14;;;;;;;3.80;1.47;;;17.70;99.90;;;;;;5031635;28;20903;-57
2022/09/15 08:49:53;;;;;;;4.10;1.70;;;17.70;99.90;;;;;;5025745;28;20446;-57
2022/09/15 08:52:25;;;;;;;4.90;1.80;;;17.70;99.90;;;;;;5031019;28;20528;-57
2022/09/15 08:54:54;;;;;;;5.03;1.77;;;17.70;99.90;;;;;;5030107;28;20430;-58
2022/09/15 08:57:24;;;;;;;4.53;1.90;;;17.80;99.90;;;;;;5030693;28;20454;-57
2022/09/15 08:59:50;;;;;;;1.97;1.77;;;17.80;99.90;;;;;;5029314;28;20649;-57
2022/09/15 09:02:22;;;;;;;2.73;1.97;;;17.90;99.90;;;;;;5031563;28;20858;-57
2022/09/15 09:05:12;;;;;;;2.30;1.40;;;17.90;99.90;;;;;;5024606;28;20437;-57
2022/09/15 09:08:01;;;;;;;5.43;2.07;;;18.00;99.90;;;;;;5027773;28;20477;-57
2022/09/15 09:10:38;;;;;;;3.43;2.10;;;18.10;99.90;;;;;;5031413;28;20422;-57
2022/09/15 09:13:07;;;;;;;4.33;2.40;;;18.30;99.90;;;;;;5031485;28;20406;-57
2022/09/15 09:15:35;;;;;;;3.10;1.73;;;18.40;99.90;;;;;;5028157;28;20978;-58
2022/09/15 09:18:19;;;;;;;2.10;1.90;;;18.40;99.90;;;;;;5029763;28;20493;-57
2022/09/15 09:20:54;;;;;;;2.00;1.80;;;18.50;99.90;;;;;;5031470;28;20442;-57
2022/09/15 09:23:24;;;;;;;5.00;2.93;;;18.50;99.90;;;;;;5029692;28;20430;-57
2022/09/15 09:25:51;;;;;;;7.47;2.53;;;18.50;99.90;;;;;;5028829;28;20508;-57
2022/09/15 09:28:46;;;;;;;4.73;2.70;;;18.60;99.90;;;;;;5027894;28;20425;-57
2022/09/15 09:31:17;;;;;;;2.33;2.13;;;18.70;99.90;;;;;;5019974;28;20965;-57
2022/09/15 09:34:00;;;;;;;3.03;2.10;;;18.80;99.90;;;;;;5019348;28;20521;-57
2022/09/15 09:36:26;;;;;;;4.07;2.50;;;18.90;99.90;;;;;;5023424;28;20489;-57
2022/09/15 09:38:54;;;;;;;2.30;2.10;;;19.10;99.90;;;;;;5030466;28;20458;-57
2022/09/15 09:41:24;;;;;;;2.60;1.87;;;19.30;99.90;;;;;;5028966;28;20190;-57
2022/09/15 09:43:52;;;;;;;2.93;1.60;;;19.30;99.90;;;;;;5011157;28;20787;-58
2022/09/15 09:46:19;;;;;;;3.80;1.93;;;19.40;99.90;;;;;;5027610;28;20430;-56
2022/09/15 09:48:57;;;;;;;5.90;1.90;;;19.40;99.90;;;;;;5026652;28;20437;-57
2022/09/15 09:51:30;;;;;;;3.37;1.83;;;19.40;99.90;;;;;;5017046;28;20431;-58
2022/09/15 09:54:02;;;;;;;2.37;1.47;;;19.40;99.90;;;;;;5027626;28;20771;-57
2022/09/15 09:56:27;;;;;;;2.90;1.40;;;19.40;99.90;;;;;;5030477;28;21039;-57
2022/09/15 09:58:54;;;;;;;2.60;1.50;;;19.30;99.90;;;;;;5028775;28;20555;-58
2022/09/15 10:01:23;;;;;;;3.20;1.43;;;19.10;99.90;;;;;;5029928;28;20212;-58
2022/09/15 10:04:11;;;;;;;2.03;1.80;;;19.00;99.90;;;;;;5024126;28;20520;-57
2022/09/15 10:06:38;;;;;;;3.57;1.67;;;18.90;99.90;;;;;;5010359;28;20400;-57
2022/09/15 10:09:13;;;;;;;1.60;1.50;;;18.70;99.90;;;;;;5013744;28;20941;-57
2022/09/15 10:11:57;;;;;;;1.60;1.40;;;18.60;99.90;;;;;;5016203;28;20891;-57
2022/09/15 10:14:35;;;;;;;3.27;1.70;;;18.50;99.90;;;;;;5029664;28;20419;-57
2022/09/15 10:17:15;;;;;;;3.20;1.77;;;18.50;99.90;;;;;;5028219;28;20462;-57
2022/09/15 10:19:52;;;;;;;1.40;1.30;;;18.40;99.90;;;;;;5030266;28;20468;-55
2022/09/15 10:22:34;;;;;;;1.60;1.50;;;18.50;99.90;;;;;;5027338;28;20425;-57
2022/09/15 10:25:02;;;;;;;1.70;1.60;;;18.50;99.90;;;;;;5025924;28;20431;-57
2022/09/15 10:27:32;;;;;;;1.30;1.20;;;18.50;99.90;;;;;;5012069;28;20478;-57
2022/09/15 10:30:12;;;;;;;1.80;1.60;;;18.60;99.90;;;;;;5027767;28;20466;-57
2022/09/15 10:32:39;;;;;;;2.47;1.37;;;18.80;99.90;;;;;;5029480;28;20476;-57
2022/09/15 10:35:19;;;;;;;2.03;1.60;;;19.00;99.90;;;;;;5018130;28;20439;-57
2022/09/15 10:38:23;;;;;;;2.97;1.70;;;19.30;99.90;;;;;;5021216;28;20470;-57
2022/09/15 10:40:55;;;;;;;1.40;1.20;;;19.50;99.90;;;;;;4986135;28;20463;-57
2022/09/15 10:43:20;;;;;;;1.20;1.10;;;19.60;99.90;;;;;;4982838;28;20440;-58
2022/09/15 10:46:08;;;;;;;3.00;1.53;;;19.60;99.90;;;;;;5011444;28;20438;-56
2022/09/15 10:49:09;;;;;;;3.33;1.50;;;19.60;99.90;;;;;;5024885;28;20190;-59
2022/09/15 10:51:38;;;;;;;1.60;1.50;;;19.40;99.90;;;;;;5027710;28;20425;-58
2022/09/15 10:54:19;;;;;;;2.10;1.27;;;19.30;99.90;;;;;;5024357;28;20910;-57
2022/09/15 10:56:53;;;;;;;3.23;1.57;;;19.20;99.90;;;;;;5024520;28;20496;-58
2022/09/15 10:59:19;;;;;;;1.47;1.37;;;19.10;99.90;;;;;;5028404;28;20548;-58
2022/09/15 11:01:57;;;;;;;4.57;1.30;;;19.20;99.90;;;;;;5031308;28;20997;-57
2022/09/15 11:04:52;;;;;;;2.03;1.57;;;19.30;99.90;;;;;;5019166;28;20192;-58
2022/09/15 11:07:39;;;;;;;1.17;1.07;;;19.40;99.90;;;;;;5023809;28;20427;-58
2022/09/15 11:10:13;;;;;;;1.33;1.23;;;19.50;99.90;;;;;;5026689;28;20458;-57
2022/09/15 11:13:12;;;;;;;1.47;1.37;;;19.50;99.90;;;;;;5022311;28;20533;-58
2022/09/15 11:15:47;;;;;;;1.57;1.20;;;19.40;99.90;;;;;;5042001;28;20422;-58
2022/09/15 11:18:25;;;;;;;1.00;0.90;;;19.30;99.90;;;;;;5025844;28;21236;-58
2022/09/15 11:20:57;;;;;;;1.30;1.20;;;19.20;99.90;;;;;;5025208;28;20508;-54
2022/09/15 11:23:47;;;;;;;1.37;1.20;;;19.10;99.90;;;;;;5026019;28;20438;-53
2022/09/15 11:26:18;;;;;;;1.00;0.90;;;19.10;99.90;;;;;;5011327;28;20707;-53
2022/09/15 11:28:51;;;;;;;10.90;1.63;;;19.10;99.90;;;;;;5026462;28;20812;-54
2022/09/15 11:31:39;;;;;;;3.30;1.60;;;19.20;99.90;;;;;;5023675;28;20453;-54
2022/09/15 11:34:48;;;;;;;1.33;1.20;;;19.20;99.90;;;;;;5023597;28;20584;-54
2022/09/15 11:37:22;;;;;;;1.23;1.10;;;19.30;99.90;;;;;;5014685;28;21005;-53
2022/09/15 11:40:11;;;;;;;1.90;1.20;;;19.40;99.90;;;;;;5025340;28;20445;-55
2022/09/15 11:42:48;;;;;;;1.53;1.10;;;19.40;99.90;;;;;;5025243;28;20431;-54
2022/09/15 11:45:19;;;;;;;0.90;0.90;;;19.40;99.90;;;;;;5025636;28;20426;-54
2022/09/15 11:47:51;;;;;;;1.20;1.10;;;19.40;99.90;;;;;;5025097;28;20478;-54
2022/09/15 11:50:21;;;;;;;1.27;1.17;;;19.40;99.90;;;;;;5020663;28;20498;-54
2022/09/15 11:53:24;;;;;;;1.10;1.00;;;19.30;99.90;;;;;;5024295;28;20802;-55
2022/09/15 11:56:13;;;;;;;1.10;1.00;;;19.40;99.90;;;;;;5023363;28;20430;-54
2022/09/15 11:58:45;;;;;;;0.80;0.80;;;19.50;99.90;;;;;;5022774;28;20898;-54
2022/09/15 12:01:10;;;;;;;0.90;0.90;;;19.50;99.90;;;;;;5019953;28;20466;-55
2022/09/15 12:03:51;;;;;;;2.20;1.10;;;19.60;99.90;;;;;;5028413;28;20956;-55
2022/09/15 12:06:26;;;;;;;1.20;1.10;;;19.60;99.90;;;;;;5018042;28;20569;-52
2022/09/15 12:09:02;;;;;;;2.20;1.10;;;19.70;99.90;;;;;;5014441;28;20929;-55
2022/09/15 12:11:35;;;;;;;1.07;1.00;;;19.80;99.90;;;;;;5024986;28;20912;-57
2022/09/15 12:14:03;;;;;;;1.70;1.10;;;19.80;99.90;;;;;;5017787;28;20785;-57
2022/09/15 12:16:30;;;;;;;1.00;0.90;;;19.90;99.90;;;;;;5019119;28;20965;-56
2022/09/15 12:19:22;;;;;;;2.00;0.93;;;19.90;99.90;;;;;;5019936;28;20565;-57
2022/09/15 12:22:01;;;;;;;1.57;1.00;;;19.80;99.90;;;;;;5022020;28;20435;-58
2022/09/15 12:24:38;;;;;;;2.10;1.00;;;19.80;99.90;;;;;;5022238;28;20479;-58
2022/09/15 12:27:03;;;;;;;3.23;1.13;;;19.70;99.90;;;;;;5018118;28;20516;-58
2022/09/15 12:29:38;;;;;;;1.77;0.97;;;19.60;99.90;;;;;;5022843;28;21030;-57
2022/09/15 12:32:25;;;;;;;0.90;0.90;;;19.60;99.90;;;;;;5025424;28;20191;-58
2022/09/15 12:34:59;;;;;;;1.40;1.10;;;19.60;99.90;;;;;;5025822;28;20430;-60
2022/09/15 12:37:55;;;;;;;1.10;1.00;;;19.60;99.90;;;;;;5020535;28;20932;-56
2022/09/15 12:40:23;;;;;;;1.00;0.90;;;19.60;99.90;;;;;;5020998;28;20893;-56
2022/09/15 12:42:49;;;;;;;3.23;1.30;;;19.60;99.90;;;;;;5020964;28;20442;-56
2022/09/15 12:45:28;;;;;;;1.53;1.07;;;19.60;99.90;;;;;;5022702;28;20504;-57
2022/09/15 12:48:19;;;;;;;1.10;1.00;;;19.70;99.90;;;;;;5020450;28;20180;-58
2022/09/15 12:50:55;;;;;;;0.80;0.80;;;19.70;99.90;;;;;;5023509;28;20458;-59
2022/09/15 12:53:27;;;;;;;1.00;0.90;;;19.70;99.90;;;;;;5024078;28;20421;-58
2022/09/15 12:56:06;;;;;;;1.37;1.20;;;19.70;99.90;;;;;;5027074;28;20434;-59
2022/09/15 12:58:46;;;;;;;1.20;1.10;;;19.60;99.90;;;;;;5027061;28;21071;-59
2022/09/15 13:01:18;;;;;;;3.10;1.47;;;19.60;99.90;;;;;;5024095;28;20548;-58
2022/09/15 13:03:44;;;;;;;1.40;1.30;;;19.40;99.90;;;;;;5027432;28;20794;-58
2022/09/15 13:06:09;;;;;;;2.40;1.30;;;19.30;99.90;;;;;;5024374;28;20444;-59
2022/09/15 13:08:35;;;;;;;3.13;1.20;;;19.20;99.90;;;;;;5024286;28;20438;-58
2022/09/15 13:11:03;;;;;;;2.30;1.00;;;18.90;99.90;;;;;;5022265;28;20227;-57